sensor_id;sensor_type;location;lat;lon;timestamp;pressure;altitude;pressure_sealevel;temperature;humidity
60705;BME280;46545;38.014;-7.874;2023-07-20T00:01:44;65176.66;;;-145.13;100.00
60705;BME280;46545;38.014;-7.874;2023-07-20T00:03:45;65176.66;;;-145.13;100.00
60705;BME280;46545;38.014;-7.874;2023-07-20T00:05:49;65176.66;;;-145.13;100.00
60705;BME280;46545;38.014;-7.874;2023-07-20T00:07:50;65176.66;;;-145.13;100.00
60705;BME280;46545;38.014;-7.874;2023-07-20T00:09:52;65176.66;;;-145.13;100.00
60705;BME280;46545;38.014;-7.874;2023-07-20T00:11:53;65176.66;;;-145.13;100.00
60705;BME280;46545;38.014;-7.874;2023-07-20T00:13:53;65176.66;;;-145.13;100.00
60705;BME280;46545;38.014;-7.874;2023-07-20T00:15:54;65176.66;;;-145.13;100.00
60705;BME280;46545;38.014;-7.874;2023-07-20T00:17:55;65176.66;;;-145.13;100.00
60705;BME280;46545;38.014;-7.874;2023-07-20T00:19:55;65176.66;;;-145.13;100.00
60705;BME280;46545;38.014;-7.874;2023-07-20T00:21:56;65176.66;;;-145.13;100.00
60705;BME280;46545;38.014;-7.874;2023-07-20T00:23:56;65176.66;;;-145.13;100.00
60705;BME280;46545;38.014;-7.874;2023-07-20T00:25:57;65176.66;;;-145.13;100.00
60705;BME280;46545;38.014;-7.874;2023-07-20T00:27:58;65176.66;;;-145.13;100.00
60705;BME280;46545;38.014;-7.874;2023-07-20T00:29:58;65176.66;;;-145.13;100.00
60705;BME280;46545;38.014;-7.874;2023-07-20T00:31:59;65176.66;;;-145.13;100.00
60705;BME280;46545;38.014;-7.874;2023-07-20T00:33:59;65176.66;;;-145.13;100.00
60705;BME280;46545;38.014;-7.874;2023-07-20T00:36:00;65176.66;;;-145.13;100.00
60705;BME280;46545;38.014;-7.874;2023-07-20T00:38:01;65176.66;;;-145.13;100.00
60705;BME280;46545;38.014;-7.874;2023-07-20T00:40:01;65176.66;;;-145.13;100.00
60705;BME280;46545;38.014;-7.874;2023-07-20T00:42:05;65176.66;;;-145.13;100.00
60705;BME280;46545;38.014;-7.874;2023-07-20T00:44:07;65176.66;;;-145.13;100.00
60705;BME280;46545;38.014;-7.874;2023-07-20T00:46:08;65176.66;;;-145.13;100.00
60705;BME280;46545;38.014;-7.874;2023-07-20T00:48:09;65176.66;;;-145.13;100.00
60705;BME280;46545;38.014;-7.874;2023-07-20T00:50:10;65176.66;;;-145.13;100.00
60705;BME280;46545;38.014;-7.874;2023-07-20T00:52:13;65176.66;;;-145.13;100.00
60705;BME280;46545;38.014;-7.874;2023-07-20T00:54:17;65176.66;;;-145.13;100.00
60705;BME280;46545;38.014;-7.874;2023-07-20T00:56:17;65176.66;;;-145.13;100.00
60705;BME280;46545;38.014;-7.874;2023-07-20T00:58:18;65176.66;;;-145.13;100.00
60705;BME280;46545;38.014;-7.874;2023-07-20T01:00:19;65176.66;;;-145.13;100.00
60705;BME280;46545;38.014;-7.874;2023-07-20T01:02:19;65176.66;;;-145.13;100.00
60705;BME280;46545;38.014;-7.874;2023-07-20T01:04:21;65176.66;;;-145.13;100.00
60705;BME280;46545;38.014;-7.874;2023-07-20T01:06:44;65176.66;;;-145.13;100.00
60705;BME280;46545;38.014;-7.874;2023-07-20T01:09:06;65176.66;;;-145.13;100.00
60705;BME280;46545;38.014;-7.874;2023-07-20T01:11:37;65176.66;;;-145.13;100.00
60705;BME280;46545;38.014;-7.874;2023-07-20T01:13:39;65176.66;;;-145.13;100.00
60705;BME280;46545;38.014;-7.874;2023-07-20T01:15:40;65176.66;;;-145.13;100.00
60705;BME280;46545;38.014;-7.874;2023-07-20T01:17:41;65176.66;;;-145.13;100.00
60705;BME280;46545;38.014;-7.874;2023-07-20T01:19:42;65176.66;;;-145.13;100.00
60705;BME280;46545;38.014;-7.874;2023-07-20T01:31:26;65176.66;;;-145.13;100.00
60705;BME280;46545;38.014;-7.874;2023-07-20T01:33:30;65176.66;;;-145.13;100.00
60705;BME280;46545;38.014;-7.874;2023-07-20T01:35:33;65176.66;;;-145.13;100.00
60705;BME280;46545;38.014;-7.874;2023-07-20T01:37:35;65176.66;;;-145.13;100.00
60705;BME280;46545;38.014;-7.874;2023-07-20T01:39:38;65176.66;;;-145.13;100.00
60705;BME280;46545;38.014;-7.874;2023-07-20T01:41:39;65176.66;;;-145.13;100.00
60705;BME280;46545;38.014;-7.874;2023-07-20T01:43:40;65176.66;;;-145.13;100.00
60705;BME280;46545;38.014;-7.874;2023-07-20T01:45:41;65176.66;;;-145.13;100.00
60705;BME280;46545;38.014;-7.874;2023-07-20T01:47:41;65176.66;;;-145.13;100.00
60705;BME280;46545;38.014;-7.874;2023-07-20T01:49:43;65176.66;;;-145.13;100.00
60705;BME280;46545;38.014;-7.874;2023-07-20T01:51:43;65176.66;;;-145.13;100.00
60705;BME280;46545;38.014;-7.874;2023-07-20T01:53:44;65176.66;;;-145.13;100.00
60705;BME280;46545;38.014;-7.874;2023-07-20T01:55:44;65176.66;;;-145.13;100.00
60705;BME280;46545;38.014;-7.874;2023-07-20T01:57:46;65176.66;;;-145.13;100.00
60705;BME280;46545;38.014;-7.874;2023-07-20T01:59:47;65176.66;;;-145.13;100.00
60705;BME280;46545;38.014;-7.874;2023-07-20T02:01:47;65176.66;;;-145.13;100.00
60705;BME280;46545;38.014;-7.874;2023-07-20T02:03:48;65176.66;;;-145.13;100.00
60705;BME280;46545;38.014;-7.874;2023-07-20T02:05:49;65176.66;;;-145.13;100.00
60705;BME280;46545;38.014;-7.874;2023-07-20T02:07:49;65176.66;;;-145.13;100.00
60705;BME280;46545;38.014;-7.874;2023-07-20T02:09:54;65176.66;;;-145.13;100.00
60705;BME280;46545;38.014;-7.874;2023-07-20T02:11:54;65176.66;;;-145.13;100.00
60705;BME280;46545;38.014;-7.874;2023-07-20T02:13:55;65176.66;;;-145.13;100.00
60705;BME280;46545;38.014;-7.874;2023-07-20T02:15:57;65176.66;;;-145.13;100.00
60705;BME280;46545;38.014;-7.874;2023-07-20T02:17:57;65176.66;;;-145.13;100.00
60705;BME280;46545;38.014;-7.874;2023-07-20T02:19:58;65176.66;;;-145.13;100.00
60705;BME280;46545;38.014;-7.874;2023-07-20T02:21:59;65176.66;;;-145.13;100.00
60705;BME280;46545;38.014;-7.874;2023-07-20T02:23:59;65176.66;;;-145.13;100.00
60705;BME280;46545;38.014;-7.874;2023-07-20T02:26:00;65176.66;;;-145.13;100.00
60705;BME280;46545;38.014;-7.874;2023-07-20T02:28:01;65176.66;;;-145.13;100.00
60705;BME280;46545;38.014;-7.874;2023-07-20T02:30:02;65176.66;;;-145.13;100.00
60705;BME280;46545;38.014;-7.874;2023-07-20T02:32:04;65176.66;;;-145.13;100.00
60705;BME280;46545;38.014;-7.874;2023-07-20T02:34:05;65176.66;;;-145.13;100.00
60705;BME280;46545;38.014;-7.874;2023-07-20T02:36:06;65176.66;;;-145.13;100.00
60705;BME280;46545;38.014;-7.874;2023-07-20T02:38:07;65176.66;;;-145.13;100.00
60705;BME280;46545;38.014;-7.874;2023-07-20T02:40:08;65176.66;;;-145.13;100.00
60705;BME280;46545;38.014;-7.874;2023-07-20T02:42:09;65176.66;;;-145.13;100.00
60705;BME280;46545;38.014;-7.874;2023-07-20T02:44:10;65176.66;;;-145.13;100.00
60705;BME280;46545;38.014;-7.874;2023-07-20T02:46:10;65176.66;;;-145.13;100.00
60705;BME280;46545;38.014;-7.874;2023-07-20T02:48:12;65176.66;;;-145.13;100.00
60705;BME280;46545;38.014;-7.874;2023-07-20T02:50:14;65176.66;;;-145.13;100.00
60705;BME280;46545;38.014;-7.874;2023-07-20T02:52:15;65176.66;;;-145.13;100.00
60705;BME280;46545;38.014;-7.874;2023-07-20T02:54:16;65176.66;;;-145.13;100.00
60705;BME280;46545;38.014;-7.874;2023-07-20T02:56:17;65176.66;;;-145.13;100.00
60705;BME280;46545;38.014;-7.874;2023-07-20T02:58:19;65176.66;;;-145.13;100.00
60705;BME280;46545;38.014;-7.874;2023-07-20T03:00:21;65176.66;;;-145.13;100.00
60705;BME280;46545;38.014;-7.874;2023-07-20T03:02:23;65176.66;;;-145.13;100.00
60705;BME280;46545;38.014;-7.874;2023-07-20T03:04:26;65176.66;;;-145.13;100.00
60705;BME280;46545;38.014;-7.874;2023-07-20T03:06:27;65176.66;;;-145.13;100.00
60705;BME280;46545;38.014;-7.874;2023-07-20T03:08:28;65176.66;;;-145.13;100.00
60705;BME280;46545;38.014;-7.874;2023-07-20T03:10:29;65176.66;;;-145.13;100.00
60705;BME280;46545;38.014;-7.874;2023-07-20T03:12:31;65176.66;;;-145.13;100.00
60705;BME280;46545;38.014;-7.874;2023-07-20T03:14:34;65176.66;;;-145.13;100.00
60705;BME280;46545;38.014;-7.874;2023-07-20T03:16:35;65176.66;;;-145.13;100.00
60705;BME280;46545;38.014;-7.874;2023-07-20T03:18:38;65176.66;;;-145.13;100.00
60705;BME280;46545;38.014;-7.874;2023-07-20T03:20:39;65176.66;;;-145.13;100.00
60705;BME280;46545;38.014;-7.874;2023-07-20T03:22:41;65176.66;;;-145.13;100.00
60705;BME280;46545;38.014;-7.874;2023-07-20T03:24:41;65176.66;;;-145.13;100.00
60705;BME280;46545;38.014;-7.874;2023-07-20T03:26:42;65176.66;;;-145.13;100.00
60705;BME280;46545;38.014;-7.874;2023-07-20T03:28:43;65176.66;;;-145.13;100.00
60705;BME280;46545;38.014;-7.874;2023-07-20T03:30:44;65176.66;;;-145.13;100.00
60705;BME280;46545;38.014;-7.874;2023-07-20T03:32:45;65176.66;;;-145.13;100.00
60705;BME280;46545;38.014;-7.874;2023-07-20T03:34:46;65176.66;;;-145.13;100.00
60705;BME280;46545;38.014;-7.874;2023-07-20T03:36:48;65176.66;;;-145.13;100.00
60705;BME280;46545;38.014;-7.874;2023-07-20T03:38:49;65176.66;;;-145.13;100.00
60705;BME280;46545;38.014;-7.874;2023-07-20T03:40:55;65176.66;;;-145.13;100.00
60705;BME280;46545;38.014;-7.874;2023-07-20T03:42:56;65176.66;;;-145.13;100.00
60705;BME280;46545;38.014;-7.874;2023-07-20T03:44:57;65176.66;;;-145.13;100.00
60705;BME280;46545;38.014;-7.874;2023-07-20T03:46:57;65176.66;;;-145.13;100.00
60705;BME280;46545;38.014;-7.874;2023-07-20T03:48:58;65176.66;;;-145.13;100.00
60705;BME280;46545;38.014;-7.874;2023-07-20T03:50:58;65176.66;;;-145.13;100.00
60705;BME280;46545;38.014;-7.874;2023-07-20T03:53:01;65176.66;;;-145.13;100.00
60705;BME280;46545;38.014;-7.874;2023-07-20T03:55:01;65176.66;;;-145.13;100.00
60705;BME280;46545;38.014;-7.874;2023-07-20T03:57:02;65176.66;;;-145.13;100.00
60705;BME280;46545;38.014;-7.874;2023-07-20T03:59:03;65176.66;;;-145.13;100.00
60705;BME280;46545;38.014;-7.874;2023-07-20T04:01:04;65176.66;;;-145.13;100.00
60705;BME280;46545;38.014;-7.874;2023-07-20T04:03:04;65176.66;;;-145.13;100.00
60705;BME280;46545;38.014;-7.874;2023-07-20T04:05:05;65176.66;;;-145.13;100.00
60705;BME280;46545;38.014;-7.874;2023-07-20T04:07:06;65176.66;;;-145.13;100.00
60705;BME280;46545;38.014;-7.874;2023-07-20T04:09:07;65176.66;;;-145.13;100.00
60705;BME280;46545;38.014;-7.874;2023-07-20T04:11:08;65176.66;;;-145.13;100.00
60705;BME280;46545;38.014;-7.874;2023-07-20T04:13:09;65176.66;;;-145.13;100.00
60705;BME280;46545;38.014;-7.874;2023-07-20T04:15:10;65176.66;;;-145.13;100.00
60705;BME280;46545;38.014;-7.874;2023-07-20T04:17:10;65176.66;;;-145.13;100.00
60705;BME280;46545;38.014;-7.874;2023-07-20T04:19:14;65176.66;;;-145.13;100.00
60705;BME280;46545;38.014;-7.874;2023-07-20T04:21:14;65176.66;;;-145.13;100.00
60705;BME280;46545;38.014;-7.874;2023-07-20T04:23:15;65176.66;;;-145.13;100.00
60705;BME280;46545;38.014;-7.874;2023-07-20T04:25:19;65176.66;;;-145.13;100.00
60705;BME280;46545;38.014;-7.874;2023-07-20T04:27:22;65176.66;;;-145.13;100.00
60705;BME280;46545;38.014;-7.874;2023-07-20T04:29:22;65176.66;;;-145.13;100.00
60705;BME280;46545;38.014;-7.874;2023-07-20T04:31:23;65176.66;;;-145.13;100.00
60705;BME280;46545;38.014;-7.874;2023-07-20T04:33:24;65176.66;;;-145.13;100.00
60705;BME280;46545;38.014;-7.874;2023-07-20T04:35:50;65176.66;;;-145.13;100.00
60705;BME280;46545;38.014;-7.874;2023-07-20T04:37:54;65176.66;;;-145.13;100.00
60705;BME280;46545;38.014;-7.874;2023-07-20T04:39:57;65176.66;;;-145.13;100.00
60705;BME280;46545;38.014;-7.874;2023-07-20T04:41:58;65176.66;;;-145.13;100.00
60705;BME280;46545;38.014;-7.874;2023-07-20T04:43:59;65176.66;;;-145.13;100.00
60705;BME280;46545;38.014;-7.874;2023-07-20T04:46:02;65176.66;;;-145.13;100.00
60705;BME280;46545;38.014;-7.874;2023-07-20T04:48:12;65176.66;;;-145.13;100.00
60705;BME280;46545;38.014;-7.874;2023-07-20T04:50:16;65176.66;;;-145.13;100.00
60705;BME280;46545;38.014;-7.874;2023-07-20T04:52:17;65176.66;;;-145.13;100.00
60705;BME280;46545;38.014;-7.874;2023-07-20T04:54:18;65176.66;;;-145.13;100.00
60705;BME280;46545;38.014;-7.874;2023-07-20T04:56:19;65176.66;;;-145.13;100.00
60705;BME280;46545;38.014;-7.874;2023-07-20T04:58:22;65176.66;;;-145.13;100.00
60705;BME280;46545;38.014;-7.874;2023-07-20T05:00:23;65176.66;;;-145.13;100.00
60705;BME280;46545;38.014;-7.874;2023-07-20T05:02:23;65176.66;;;-145.13;100.00
60705;BME280;46545;38.014;-7.874;2023-07-20T05:04:24;65176.66;;;-145.13;100.00
60705;BME280;46545;38.014;-7.874;2023-07-20T05:06:24;65176.66;;;-145.13;100.00
60705;BME280;46545;38.014;-7.874;2023-07-20T05:08:26;65176.66;;;-145.13;100.00
60705;BME280;46545;38.014;-7.874;2023-07-20T05:10:27;65176.66;;;-145.13;100.00
60705;BME280;46545;38.014;-7.874;2023-07-20T05:12:29;65176.66;;;-145.13;100.00
60705;BME280;46545;38.014;-7.874;2023-07-20T05:14:31;65176.66;;;-145.13;100.00
60705;BME280;46545;38.014;-7.874;2023-07-20T05:16:32;65176.66;;;-145.13;100.00
60705;BME280;46545;38.014;-7.874;2023-07-20T05:18:37;65176.66;;;-145.13;100.00
60705;BME280;46545;38.014;-7.874;2023-07-20T05:20:38;65176.66;;;-145.13;100.00
60705;BME280;46545;38.014;-7.874;2023-07-20T05:22:38;65176.66;;;-145.13;100.00
60705;BME280;46545;38.014;-7.874;2023-07-20T05:24:40;65176.66;;;-145.13;100.00
60705;BME280;46545;38.014;-7.874;2023-07-20T05:26:40;65176.66;;;-145.13;100.00
60705;BME280;46545;38.014;-7.874;2023-07-20T05:28:41;65176.66;;;-145.13;100.00
60705;BME280;46545;38.014;-7.874;2023-07-20T05:30:41;65176.66;;;-145.13;100.00
60705;BME280;46545;38.014;-7.874;2023-07-20T05:32:42;65176.66;;;-145.13;100.00
60705;BME280;46545;38.014;-7.874;2023-07-20T05:34:43;65176.66;;;-145.13;100.00
60705;BME280;46545;38.014;-7.874;2023-07-20T05:36:44;65176.66;;;-145.13;100.00
60705;BME280;46545;38.014;-7.874;2023-07-20T05:38:44;65176.66;;;-145.13;100.00
60705;BME280;46545;38.014;-7.874;2023-07-20T05:40:45;65176.66;;;-145.13;100.00
60705;BME280;46545;38.014;-7.874;2023-07-20T05:42:48;65176.66;;;-145.13;100.00
60705;BME280;46545;38.014;-7.874;2023-07-20T05:44:52;65176.66;;;-145.13;100.00
60705;BME280;46545;38.014;-7.874;2023-07-20T05:46:53;65176.66;;;-145.13;100.00
60705;BME280;46545;38.014;-7.874;2023-07-20T05:48:53;65176.66;;;-145.13;100.00
60705;BME280;46545;38.014;-7.874;2023-07-20T05:50:54;65176.66;;;-145.13;100.00
60705;BME280;46545;38.014;-7.874;2023-07-20T05:52:55;65176.66;;;-145.13;100.00
60705;BME280;46545;38.014;-7.874;2023-07-20T05:54:56;65176.66;;;-145.13;100.00
60705;BME280;46545;38.014;-7.874;2023-07-20T05:56:56;65176.66;;;-145.13;100.00
60705;BME280;46545;38.014;-7.874;2023-07-20T05:58:57;65176.66;;;-145.13;100.00
60705;BME280;46545;38.014;-7.874;2023-07-20T06:00:58;65176.66;;;-145.13;100.00
60705;BME280;46545;38.014;-7.874;2023-07-20T06:03:00;65176.66;;;-145.13;100.00
60705;BME280;46545;38.014;-7.874;2023-07-20T06:05:01;65176.66;;;-145.13;100.00
60705;BME280;46545;38.014;-7.874;2023-07-20T06:07:02;65176.66;;;-145.13;100.00
60705;BME280;46545;38.014;-7.874;2023-07-20T06:09:03;65176.66;;;-145.13;100.00
60705;BME280;46545;38.014;-7.874;2023-07-20T06:11:04;65176.66;;;-145.13;100.00
60705;BME280;46545;38.014;-7.874;2023-07-20T06:13:05;65176.66;;;-145.13;100.00
60705;BME280;46545;38.014;-7.874;2023-07-20T06:15:24;65176.66;;;-145.13;100.00
60705;BME280;46545;38.014;-7.874;2023-07-20T06:17:25;65176.66;;;-145.13;100.00
60705;BME280;46545;38.014;-7.874;2023-07-20T06:19:26;65176.66;;;-145.13;100.00
60705;BME280;46545;38.014;-7.874;2023-07-20T06:21:27;65176.66;;;-145.13;100.00
60705;BME280;46545;38.014;-7.874;2023-07-20T06:23:27;65176.66;;;-145.13;100.00
60705;BME280;46545;38.014;-7.874;2023-07-20T06:25:28;65176.66;;;-145.13;100.00
60705;BME280;46545;38.014;-7.874;2023-07-20T06:27:29;65176.66;;;-145.13;100.00
60705;BME280;46545;38.014;-7.874;2023-07-20T06:29:29;65176.66;;;-145.13;100.00
60705;BME280;46545;38.014;-7.874;2023-07-20T06:31:30;65176.66;;;-145.13;100.00
60705;BME280;46545;38.014;-7.874;2023-07-20T06:33:31;65176.66;;;-145.13;100.00
60705;BME280;46545;38.014;-7.874;2023-07-20T06:35:31;65176.66;;;-145.13;100.00
60705;BME280;46545;38.014;-7.874;2023-07-20T06:37:32;65176.66;;;-145.13;100.00
60705;BME280;46545;38.014;-7.874;2023-07-20T06:39:33;65176.66;;;-145.13;100.00
60705;BME280;46545;38.014;-7.874;2023-07-20T06:41:33;65176.66;;;-145.13;100.00
60705;BME280;46545;38.014;-7.874;2023-07-20T06:43:34;65176.66;;;-145.13;100.00
60705;BME280;46545;38.014;-7.874;2023-07-20T06:45:35;65176.66;;;-145.13;100.00
60705;BME280;46545;38.014;-7.874;2023-07-20T06:47:39;65176.66;;;-145.13;100.00
60705;BME280;46545;38.014;-7.874;2023-07-20T06:49:40;65176.66;;;-145.13;100.00
60705;BME280;46545;38.014;-7.874;2023-07-20T06:51:41;65176.66;;;-145.13;100.00
60705;BME280;46545;38.014;-7.874;2023-07-20T06:53:42;65176.66;;;-145.13;100.00
60705;BME280;46545;38.014;-7.874;2023-07-20T06:55:42;65176.66;;;-145.13;100.00
60705;BME280;46545;38.014;-7.874;2023-07-20T06:57:43;65176.66;;;-145.13;100.00
60705;BME280;46545;38.014;-7.874;2023-07-20T06:59:43;65176.66;;;-145.13;100.00
60705;BME280;46545;38.014;-7.874;2023-07-20T07:01:44;65176.66;;;-145.13;100.00
60705;BME280;46545;38.014;-7.874;2023-07-20T07:03:45;65176.66;;;-145.13;100.00
60705;BME280;46545;38.014;-7.874;2023-07-20T07:05:45;65176.66;;;-145.13;100.00
60705;BME280;46545;38.014;-7.874;2023-07-20T07:07:46;65176.66;;;-145.13;100.00
60705;BME280;46545;38.014;-7.874;2023-07-20T07:09:47;65176.66;;;-145.13;100.00
60705;BME280;46545;38.014;-7.874;2023-07-20T07:11:47;65176.66;;;-145.13;100.00
60705;BME280;46545;38.014;-7.874;2023-07-20T07:13:48;65176.66;;;-145.13;100.00
60705;BME280;46545;38.014;-7.874;2023-07-20T07:15:51;65176.66;;;-145.13;100.00
60705;BME280;46545;38.014;-7.874;2023-07-20T07:17:52;65176.66;;;-145.13;100.00
60705;BME280;46545;38.014;-7.874;2023-07-20T07:19:53;65176.66;;;-145.13;100.00
60705;BME280;46545;38.014;-7.874;2023-07-20T07:21:57;65176.66;;;-145.13;100.00
60705;BME280;46545;38.014;-7.874;2023-07-20T07:23:57;65176.66;;;-145.13;100.00
60705;BME280;46545;38.014;-7.874;2023-07-20T07:26:00;65176.66;;;-145.13;100.00
60705;BME280;46545;38.014;-7.874;2023-07-20T07:28:00;65176.66;;;-145.13;100.00
60705;BME280;46545;38.014;-7.874;2023-07-20T07:30:02;65176.66;;;-145.13;100.00
60705;BME280;46545;38.014;-7.874;2023-07-20T07:32:03;65176.66;;;-145.13;100.00
60705;BME280;46545;38.014;-7.874;2023-07-20T07:34:04;65176.66;;;-145.13;100.00
60705;BME280;46545;38.014;-7.874;2023-07-20T07:36:05;65176.66;;;-145.13;100.00
60705;BME280;46545;38.014;-7.874;2023-07-20T07:38:06;65176.66;;;-145.13;100.00
60705;BME280;46545;38.014;-7.874;2023-07-20T07:40:07;65176.66;;;-145.13;100.00
60705;BME280;46545;38.014;-7.874;2023-07-20T07:42:08;65176.66;;;-145.13;100.00
60705;BME280;46545;38.014;-7.874;2023-07-20T07:44:09;65176.66;;;-145.13;100.00
60705;BME280;46545;38.014;-7.874;2023-07-20T07:46:09;98745.28;;;28.74;32.20
60705;BME280;46545;38.014;-7.874;2023-07-20T07:48:10;98897.97;;;32.08;37.54
60705;BME280;46545;38.014;-7.874;2023-07-20T07:50:14;98910.84;;;31.71;38.27
60705;BME280;46545;38.014;-7.874;2023-07-20T07:52:15;65176.66;;;-145.13;100.00
60705;BME280;46545;38.014;-7.874;2023-07-20T07:54:16;98900.94;;;32.69;35.85
60705;BME280;46545;38.014;-7.874;2023-07-20T07:56:16;98906.50;;;33.58;34.03
60705;BME280;46545;38.014;-7.874;2023-07-20T07:58:17;98904.88;;;33.79;34.27
60705;BME280;46545;38.014;-7.874;2023-07-20T08:00:18;98904.84;;;33.90;33.54
60705;BME280;46545;38.014;-7.874;2023-07-20T08:02:19;98903.97;;;34.14;33.10
60705;BME280;46545;38.014;-7.874;2023-07-20T08:04:20;98907.69;;;33.68;34.39
60705;BME280;46545;38.014;-7.874;2023-07-20T08:06:20;98910.19;;;35.07;31.60
60705;BME280;46545;38.014;-7.874;2023-07-20T08:08:22;98918.38;;;35.32;31.06
60705;BME280;46545;38.014;-7.874;2023-07-20T08:10:22;98913.91;;;35.42;31.11
60705;BME280;46545;38.014;-7.874;2023-07-20T08:12:23;98909.97;;;35.77;30.60
60705;BME280;46545;38.014;-7.874;2023-07-20T08:14:24;98911.38;;;35.54;30.62
60705;BME280;46545;38.014;-7.874;2023-07-20T08:16:25;98908.19;;;35.14;30.78
60705;BME280;46545;38.014;-7.874;2023-07-20T08:18:25;98913.13;;;34.89;31.12
60705;BME280;46545;38.014;-7.874;2023-07-20T08:20:26;98912.16;;;35.10;31.42
60705;BME280;46545;38.014;-7.874;2023-07-20T08:22:27;98906.19;;;35.15;30.85
60705;BME280;46545;38.014;-7.874;2023-07-20T08:24:27;98913.59;;;36.08;29.43
60705;BME280;46545;38.014;-7.874;2023-07-20T08:26:28;98912.19;;;37.09;27.79
60705;BME280;46545;38.014;-7.874;2023-07-20T08:28:28;98907.03;;;37.54;27.36
60705;BME280;46545;38.014;-7.874;2023-07-20T08:30:39;98910.44;;;37.66;26.85
60705;BME280;46545;38.014;-7.874;2023-07-20T08:32:40;98911.28;;;36.65;28.23
60705;BME280;46545;38.014;-7.874;2023-07-20T08:34:41;98914.59;;;36.83;28.30
60705;BME280;46545;38.014;-7.874;2023-07-20T08:36:42;98917.56;;;36.42;28.17
60705;BME280;46545;38.014;-7.874;2023-07-20T08:38:43;98916.28;;;36.46;28.44
60705;BME280;46545;38.014;-7.874;2023-07-20T08:40:45;98913.94;;;36.99;27.66
60705;BME280;46545;38.014;-7.874;2023-07-20T08:42:46;98920.78;;;38.09;26.11
60705;BME280;46545;38.014;-7.874;2023-07-20T08:44:48;98916.34;;;37.91;26.10
60705;BME280;46545;38.014;-7.874;2023-07-20T08:46:49;98916.25;;;37.31;27.30
60705;BME280;46545;38.014;-7.874;2023-07-20T08:48:50;98913.72;;;37.81;26.44
60705;BME280;46545;38.014;-7.874;2023-07-20T08:50:52;98918.53;;;36.86;27.27
60705;BME280;46545;38.014;-7.874;2023-07-20T08:52:58;98920.38;;;35.28;30.13
60705;BME280;46545;38.014;-7.874;2023-07-20T08:54:59;98915.72;;;35.97;29.06
60705;BME280;46545;38.014;-7.874;2023-07-20T08:57:04;98914.31;;;36.16;28.98
60705;BME280;46545;38.014;-7.874;2023-07-20T08:59:06;98912.81;;;36.08;29.33
60705;BME280;46545;38.014;-7.874;2023-07-20T09:01:08;98914.59;;;37.78;26.10
60705;BME280;46545;38.014;-7.874;2023-07-20T09:03:08;98913.31;;;37.82;25.97
60705;BME280;46545;38.014;-7.874;2023-07-20T09:05:10;98911.16;;;37.46;25.90
60705;BME280;46545;38.014;-7.874;2023-07-20T09:07:11;98912.34;;;37.25;26.23
60705;BME280;46545;38.014;-7.874;2023-07-20T09:09:12;98913.94;;;36.99;26.53
60705;BME280;46545;38.014;-7.874;2023-07-20T09:11:14;98906.81;;;37.22;26.92
60705;BME280;46545;38.014;-7.874;2023-07-20T09:13:15;98914.84;;;36.92;27.14
60705;BME280;46545;38.014;-7.874;2023-07-20T09:15:17;98919.72;;;36.88;26.72
60705;BME280;46545;38.014;-7.874;2023-07-20T09:17:19;98912.56;;;36.84;27.03
60705;BME280;46545;38.014;-7.874;2023-07-20T09:19:20;98907.91;;;37.28;26.34
60705;BME280;46545;38.014;-7.874;2023-07-20T09:21:21;65176.66;;;-145.13;100.00
60705;BME280;46545;38.014;-7.874;2023-07-20T09:23:30;65176.66;;;-145.13;100.00
60705;BME280;46545;38.014;-7.874;2023-07-20T09:25:31;65176.66;;;-145.13;100.00
60705;BME280;46545;38.014;-7.874;2023-07-20T09:27:39;65176.66;;;-145.13;100.00
60705;BME280;46545;38.014;-7.874;2023-07-20T09:29:50;65176.66;;;-145.13;100.00
60705;BME280;46545;38.014;-7.874;2023-07-20T09:32:04;65176.66;;;-145.13;100.00
60705;BME280;46545;38.014;-7.874;2023-07-20T09:34:05;65176.66;;;-145.13;100.00
60705;BME280;46545;38.014;-7.874;2023-07-20T09:36:06;65176.66;;;-145.13;100.00
60705;BME280;46545;38.014;-7.874;2023-07-20T09:38:06;65176.66;;;-145.13;100.00
60705;BME280;46545;38.014;-7.874;2023-07-20T09:40:09;65176.66;;;-145.13;100.00
60705;BME280;46545;38.014;-7.874;2023-07-20T09:42:13;65176.66;;;-145.13;100.00
60705;BME280;46545;38.014;-7.874;2023-07-20T09:44:15;65176.66;;;-145.13;100.00
60705;BME280;46545;38.014;-7.874;2023-07-20T09:46:16;65176.66;;;-145.13;100.00
60705;BME280;46545;38.014;-7.874;2023-07-20T09:48:17;65176.66;;;-145.13;100.00
60705;BME280;46545;38.014;-7.874;2023-07-20T09:50:29;65176.66;;;-145.13;100.00
60705;BME280;46545;38.014;-7.874;2023-07-20T09:52:30;65176.66;;;-145.13;100.00
60705;BME280;46545;38.014;-7.874;2023-07-20T09:54:31;65176.66;;;-145.13;100.00
60705;BME280;46545;38.014;-7.874;2023-07-20T09:56:33;65176.66;;;-145.13;100.00
60705;BME280;46545;38.014;-7.874;2023-07-20T09:58:34;65176.66;;;-145.13;100.00
60705;BME280;46545;38.014;-7.874;2023-07-20T10:00:36;65176.66;;;-145.13;100.00
60705;BME280;46545;38.014;-7.874;2023-07-20T10:02:45;65176.66;;;-145.13;100.00
60705;BME280;46545;38.014;-7.874;2023-07-20T10:04:45;65176.66;;;-145.13;100.00
60705;BME280;46545;38.014;-7.874;2023-07-20T10:06:47;65176.66;;;-145.13;100.00
60705;BME280;46545;38.014;-7.874;2023-07-20T10:08:53;65176.66;;;-145.13;100.00
60705;BME280;46545;38.014;-7.874;2023-07-20T10:10:53;65176.66;;;-145.13;100.00
60705;BME280;46545;38.014;-7.874;2023-07-20T10:12:57;65176.66;;;-145.13;100.00
60705;BME280;46545;38.014;-7.874;2023-07-20T10:15:12;65176.66;;;-145.13;100.00
60705;BME280;46545;38.014;-7.874;2023-07-20T10:17:14;65176.66;;;-145.13;100.00
60705;BME280;46545;38.014;-7.874;2023-07-20T10:21:27;65176.66;;;-145.13;100.00
60705;BME280;46545;38.014;-7.874;2023-07-20T10:23:29;65176.66;;;-145.13;100.00
60705;BME280;46545;38.014;-7.874;2023-07-20T10:25:30;65176.66;;;-145.13;100.00
60705;BME280;46545;38.014;-7.874;2023-07-20T10:27:32;65176.66;;;-145.13;100.00
60705;BME280;46545;38.014;-7.874;2023-07-20T10:29:33;65176.66;;;-145.13;100.00